sensor_id;sensor_type;location;lat;lon;timestamp;pressure;altitude;pressure_sealevel;temperature;humidity
59063;BME280;44851;45.648;9.004;2024-03-22T00:02:06;99414.19;;;12.93;70.18
59063;BME280;44851;45.648;9.004;2024-03-22T00:04:32;99416.94;;;13.01;69.97
59063;BME280;44851;45.648;9.004;2024-03-22T00:06:57;99418.31;;;12.68;71.16
59063;BME280;44851;45.648;9.004;2024-03-22T00:09:23;99421.41;;;12.81;70.98
59063;BME280;44851;45.648;9.004;2024-03-22T00:11:48;99431.44;;;12.86;70.52
59063;BME280;44851;45.648;9.004;2024-03-22T00:14:14;99431.13;;;12.99;69.87
59063;BME280;44851;45.648;9.004;2024-03-22T00:16:39;99437.31;;;12.98;69.75
59063;BME280;44851;45.648;9.004;2024-03-22T00:19:05;99440.41;;;12.83;69.55
59063;BME280;44851;45.648;9.004;2024-03-22T00:21:30;99427.66;;;12.70;70.53
59063;BME280;44851;45.648;9.004;2024-03-22T00:23:57;99424.00;;;12.44;71.01
59063;BME280;44851;45.648;9.004;2024-03-22T00:26:22;99429.13;;;12.73;70.75
59063;BME280;44851;45.648;9.004;2024-03-22T00:28:48;99433.47;;;13.02;69.85
59063;BME280;44851;45.648;9.004;2024-03-22T00:31:14;99427.63;;;13.08;69.00
59063;BME280;44851;45.648;9.004;2024-03-22T00:33:39;99436.75;;;13.04;68.46
59063;BME280;44851;45.648;9.004;2024-03-22T00:36:05;99435.88;;;12.85;69.15
59063;BME280;44851;45.648;9.004;2024-03-22T00:38:30;99435.97;;;12.93;69.12
59063;BME280;44851;45.648;9.004;2024-03-22T00:40:55;99444.91;;;13.01;68.32
59063;BME280;44851;45.648;9.004;2024-03-22T00:43:21;99445.31;;;12.96;67.85
59063;BME280;44851;45.648;9.004;2024-03-22T00:45:47;99438.97;;;12.99;67.94
59063;BME280;44851;45.648;9.004;2024-03-22T00:48:12;99436.13;;;12.82;67.95
59063;BME280;44851;45.648;9.004;2024-03-22T00:50:38;99443.59;;;12.77;68.88
59063;BME280;44851;45.648;9.004;2024-03-22T00:53:03;99434.88;;;12.86;69.01
59063;BME280;44851;45.648;9.004;2024-03-22T00:55:30;99440.69;;;12.80;69.43
59063;BME280;44851;45.648;9.004;2024-03-22T00:57:55;99440.97;;;12.77;69.56
59063;BME280;44851;45.648;9.004;2024-03-22T01:00:21;99439.59;;;12.73;69.05
59063;BME280;44851;45.648;9.004;2024-03-22T01:02:46;99436.72;;;12.76;69.55
59063;BME280;44851;45.648;9.004;2024-03-22T01:05:11;99433.03;;;12.69;70.02
59063;BME280;44851;45.648;9.004;2024-03-22T01:07:37;99430.53;;;12.67;69.98
59063;BME280;44851;45.648;9.004;2024-03-22T01:10:03;99435.75;;;12.67;70.12
59063;BME280;44851;45.648;9.004;2024-03-22T01:12:29;99437.97;;;12.72;70.92
59063;BME280;44851;45.648;9.004;2024-03-22T01:14:54;99438.94;;;12.71;70.31
59063;BME280;44851;45.648;9.004;2024-03-22T01:17:20;99443.78;;;12.56;70.67
59063;BME280;44851;45.648;9.004;2024-03-22T01:19:45;99446.53;;;12.64;69.90
59063;BME280;44851;45.648;9.004;2024-03-22T01:22:10;99450.63;;;12.67;69.79
59063;BME280;44851;45.648;9.004;2024-03-22T01:24:36;99447.44;;;12.73;69.69
59063;BME280;44851;45.648;9.004;2024-03-22T01:27:01;99449.53;;;12.69;70.15
59063;BME280;44851;45.648;9.004;2024-03-22T01:29:26;99448.41;;;12.72;70.05
59063;BME280;44851;45.648;9.004;2024-03-22T01:31:55;99453.94;;;12.69;70.11
59063;BME280;44851;45.648;9.004;2024-03-22T01:34:20;99456.56;;;12.69;70.03
59063;BME280;44851;45.648;9.004;2024-03-22T01:36:46;99459.19;;;12.69;70.33
59063;BME280;44851;45.648;9.004;2024-03-22T01:39:11;99460.81;;;12.70;69.59
59063;BME280;44851;45.648;9.004;2024-03-22T01:41:36;99457.25;;;12.61;69.86
59063;BME280;44851;45.648;9.004;2024-03-22T01:44:02;99456.44;;;12.61;70.02
59063;BME280;44851;45.648;9.004;2024-03-22T01:46:27;99462.22;;;12.55;70.17
59063;BME280;44851;45.648;9.004;2024-03-22T01:48:52;99459.22;;;12.50;70.16
59063;BME280;44851;45.648;9.004;2024-03-22T01:51:18;99451.78;;;12.55;70.39
59063;BME280;44851;45.648;9.004;2024-03-22T01:53:43;99454.66;;;12.52;69.91
59063;BME280;44851;45.648;9.004;2024-03-22T01:56:10;99454.13;;;12.58;69.98
59063;BME280;44851;45.648;9.004;2024-03-22T01:58:36;99448.78;;;12.30;70.63
59063;BME280;44851;45.648;9.004;2024-03-22T02:01:01;99454.00;;;12.30;70.21
59063;BME280;44851;45.648;9.004;2024-03-22T02:03:30;99448.25;;;12.36;70.48
59063;BME280;44851;45.648;9.004;2024-03-22T02:05:55;99451.69;;;12.27;71.44
59063;BME280;44851;45.648;9.004;2024-03-22T02:08:21;99454.28;;;12.17;71.31
59063;BME280;44851;45.648;9.004;2024-03-22T02:10:46;99456.50;;;12.03;71.82
59063;BME280;44851;45.648;9.004;2024-03-22T02:13:12;99454.56;;;12.24;71.34
59063;BME280;44851;45.648;9.004;2024-03-22T02:15:37;99449.31;;;12.24;71.04
59063;BME280;44851;45.648;9.004;2024-03-22T02:18:02;99453.75;;;12.04;71.74
59063;BME280;44851;45.648;9.004;2024-03-22T02:20:28;99453.47;;;12.17;72.21
59063;BME280;44851;45.648;9.004;2024-03-22T02:22:53;99446.03;;;12.03;72.89
59063;BME280;44851;45.648;9.004;2024-03-22T02:25:18;99451.00;;;12.06;72.07
59063;BME280;44851;45.648;9.004;2024-03-22T02:27:44;99447.84;;;12.12;73.01
59063;BME280;44851;45.648;9.004;2024-03-22T02:30:09;99443.38;;;11.93;73.02
59063;BME280;44851;45.648;9.004;2024-03-22T02:32:35;99453.31;;;12.09;72.43
59063;BME280;44851;45.648;9.004;2024-03-22T02:35:00;99449.06;;;12.17;72.49
59063;BME280;44851;45.648;9.004;2024-03-22T02:37:25;99454.28;;;12.08;73.02
59063;BME280;44851;45.648;9.004;2024-03-22T02:39:51;99456.22;;;12.06;73.60
59063;BME280;44851;45.648;9.004;2024-03-22T02:42:16;99455.41;;;12.15;73.27
59063;BME280;44851;45.648;9.004;2024-03-22T02:44:41;99457.06;;;12.06;73.21
59063;BME280;44851;45.648;9.004;2024-03-22T02:47:09;99452.91;;;11.94;72.67
59063;BME280;44851;45.648;9.004;2024-03-22T02:49:35;99456.19;;;11.86;73.27
59063;BME280;44851;45.648;9.004;2024-03-22T02:52:01;99458.28;;;12.02;73.33
59063;BME280;44851;45.648;9.004;2024-03-22T02:54:26;99459.81;;;12.05;73.22
59063;BME280;44851;45.648;9.004;2024-03-22T02:56:52;99452.66;;;12.07;73.09
59063;BME280;44851;45.648;9.004;2024-03-22T02:59:17;99463.25;;;12.15;72.54
59063;BME280;44851;45.648;9.004;2024-03-22T03:01:43;99464.88;;;12.06;71.64
59063;BME280;44851;45.648;9.004;2024-03-22T03:04:08;99458.69;;;11.98;73.07
59063;BME280;44851;45.648;9.004;2024-03-22T03:06:33;99455.09;;;11.99;72.70
59063;BME280;44851;45.648;9.004;2024-03-22T03:08:58;99460.47;;;12.07;72.24
59063;BME280;44851;45.648;9.004;2024-03-22T03:11:24;99460.75;;;12.04;72.92
59063;BME280;44851;45.648;9.004;2024-03-22T03:13:49;99462.41;;;12.05;72.34
59063;BME280;44851;45.648;9.004;2024-03-22T03:16:15;99458.13;;;12.04;72.40
59063;BME280;44851;45.648;9.004;2024-03-22T03:18:40;99461.16;;;12.09;72.53
59063;BME280;44851;45.648;9.004;2024-03-22T03:21:06;99456.78;;;12.00;72.51
59063;BME280;44851;45.648;9.004;2024-03-22T03:23:31;99457.97;;;11.96;73.06
59063;BME280;44851;45.648;9.004;2024-03-22T03:25:57;99457.53;;;11.81;73.11
59063;BME280;44851;45.648;9.004;2024-03-22T03:28:22;99452.59;;;11.68;73.34
59063;BME280;44851;45.648;9.004;2024-03-22T03:30:47;99456.44;;;11.64;75.71
59063;BME280;44851;45.648;9.004;2024-03-22T03:33:13;99453.53;;;11.57;74.99
59063;BME280;44851;45.648;9.004;2024-03-22T03:35:38;99450.63;;;11.51;76.17
59063;BME280;44851;45.648;9.004;2024-03-22T03:38:03;99458.38;;;11.62;75.62
59063;BME280;44851;45.648;9.004;2024-03-22T03:40:29;99456.44;;;11.64;75.17
59063;BME280;44851;45.648;9.004;2024-03-22T03:42:54;99459.16;;;11.53;76.44
59063;BME280;44851;45.648;9.004;2024-03-22T03:45:19;99461.28;;;11.78;75.17
59063;BME280;44851;45.648;9.004;2024-03-22T03:47:45;99456.44;;;11.64;76.05
59063;BME280;44851;45.648;9.004;2024-03-22T03:50:10;99470.16;;;11.66;75.53
59063;BME280;44851;45.648;9.004;2024-03-22T03:52:36;99466.09;;;11.83;74.16
59063;BME280;44851;45.648;9.004;2024-03-22T03:55:01;99465.94;;;11.84;73.88
59063;BME280;44851;45.648;9.004;2024-03-22T03:57:26;99479.00;;;11.84;73.35
59063;BME280;44851;45.648;9.004;2024-03-22T03:59:52;99468.56;;;11.84;73.68
59063;BME280;44851;45.648;9.004;2024-03-22T04:02:17;99471.59;;;11.89;73.31
59063;BME280;44851;45.648;9.004;2024-03-22T04:04:42;99481.91;;;11.91;73.29
59063;BME280;44851;45.648;9.004;2024-03-22T04:07:08;99479.00;;;11.84;73.68
59063;BME280;44851;45.648;9.004;2024-03-22T04:09:34;99483.38;;;11.74;73.15
59063;BME280;44851;45.648;9.004;2024-03-22T04:11:59;99482.59;;;11.83;73.60
59063;BME280;44851;45.648;9.004;2024-03-22T04:14:25;99483.00;;;11.79;73.44
59063;BME280;44851;45.648;9.004;2024-03-22T04:16:51;99475.97;;;11.79;73.21
59063;BME280;44851;45.648;9.004;2024-03-22T04:19:16;99480.00;;;11.43;75.00
59063;BME280;44851;45.648;9.004;2024-03-22T04:21:42;99480.47;;;11.58;74.60
59063;BME280;44851;45.648;9.004;2024-03-22T04:24:07;99480.63;;;11.56;73.53
59063;BME280;44851;45.648;9.004;2024-03-22T04:26:32;99484.72;;;11.59;73.48
59063;BME280;44851;45.648;9.004;2024-03-22T04:28:58;99489.69;;;11.62;73.26
59063;BME280;44851;45.648;9.004;2024-03-22T04:31:23;99491.59;;;11.60;73.25
59063;BME280;44851;45.648;9.004;2024-03-22T04:33:48;99486.66;;;11.57;72.85
59063;BME280;44851;45.648;9.004;2024-03-22T04:36:15;99489.94;;;11.59;73.21
59063;BME280;44851;45.648;9.004;2024-03-22T04:38:40;99490.50;;;11.53;72.55
59063;BME280;44851;45.648;9.004;2024-03-22T04:41:05;99499.28;;;11.52;72.52
59063;BME280;44851;45.648;9.004;2024-03-22T04:43:31;99501.50;;;11.56;72.28
59063;BME280;44851;45.648;9.004;2024-03-22T04:45:56;99498.44;;;11.42;73.64
59063;BME280;44851;45.648;9.004;2024-03-22T04:48:22;99501.47;;;11.47;73.35
59063;BME280;44851;45.648;9.004;2024-03-22T04:50:49;99505.03;;;11.55;72.92
59063;BME280;44851;45.648;9.004;2024-03-22T04:53:21;99501.47;;;11.47;72.04
59063;BME280;44851;45.648;9.004;2024-03-22T04:55:48;99506.69;;;11.47;72.64
59063;BME280;44851;45.648;9.004;2024-03-22T04:58:17;99506.41;;;11.50;72.44
59063;BME280;44851;45.648;9.004;2024-03-22T05:00:43;99510.25;;;11.46;72.52
59063;BME280;44851;45.648;9.004;2024-03-22T05:03:09;99509.97;;;11.49;72.40
59063;BME280;44851;45.648;9.004;2024-03-22T05:05:34;99512.28;;;11.42;72.28
59063;BME280;44851;45.648;9.004;2024-03-22T05:08:00;99503.50;;;11.43;71.43
59063;BME280;44851;45.648;9.004;2024-03-22T05:10:26;99511.56;;;11.30;71.93
59063;BME280;44851;45.648;9.004;2024-03-22T05:12:51;99517.88;;;11.28;71.99
59063;BME280;44851;45.648;9.004;2024-03-22T05:15:17;99510.19;;;11.26;71.80
59063;BME280;44851;45.648;9.004;2024-03-22T05:17:42;99518.59;;;11.39;71.86
59063;BME280;44851;45.648;9.004;2024-03-22T05:20:09;99515.97;;;11.30;71.11
59063;BME280;44851;45.648;9.004;2024-03-22T05:22:39;99517.22;;;11.35;71.49
59063;BME280;44851;45.648;9.004;2024-03-22T05:25:04;99519.56;;;11.38;71.53
59063;BME280;44851;45.648;9.004;2024-03-22T05:27:33;99511.53;;;11.21;70.72
59063;BME280;44851;45.648;9.004;2024-03-22T05:29:59;99513.03;;;11.23;71.80
59063;BME280;44851;45.648;9.004;2024-03-22T05:32:25;99515.66;;;11.23;72.31
59063;BME280;44851;45.648;9.004;2024-03-22T05:34:51;99516.78;;;11.30;72.37
59063;BME280;44851;45.648;9.004;2024-03-22T05:37:17;99516.13;;;11.07;72.47
59063;BME280;44851;45.648;9.004;2024-03-22T05:39:42;99514.78;;;11.13;72.57
59063;BME280;44851;45.648;9.004;2024-03-22T05:42:07;99521.66;;;11.14;72.93
59063;BME280;44851;45.648;9.004;2024-03-22T05:44:33;99520.00;;;11.13;73.47
59063;BME280;44851;45.648;9.004;2024-03-22T05:46:58;99522.53;;;11.24;72.38
59063;BME280;44851;45.648;9.004;2024-03-22T05:49:23;99528.78;;;11.12;72.64
59063;BME280;44851;45.648;9.004;2024-03-22T05:51:49;99537.91;;;11.27;73.34
59063;BME280;44851;45.648;9.004;2024-03-22T05:54:14;99540.13;;;11.32;72.40
59063;BME280;44851;45.648;9.004;2024-03-22T05:56:40;99538.78;;;11.37;72.13
59063;BME280;44851;45.648;9.004;2024-03-22T05:59:05;99541.84;;;11.43;72.09
59063;BME280;44851;45.648;9.004;2024-03-22T06:01:31;99536.56;;;11.33;72.20
59063;BME280;44851;45.648;9.004;2024-03-22T06:03:57;99541.22;;;11.29;72.80
59063;BME280;44851;45.648;9.004;2024-03-22T06:06:22;99542.34;;;11.36;72.44
59063;BME280;44851;45.648;9.004;2024-03-22T06:08:50;99546.88;;;11.34;72.93
59063;BME280;44851;45.648;9.004;2024-03-22T06:11:18;99546.13;;;11.53;73.05
59063;BME280;44851;45.648;9.004;2024-03-22T06:13:43;99541.59;;;11.55;72.63
59063;BME280;44851;45.648;9.004;2024-03-22T06:16:09;99538.88;;;11.57;72.42
59063;BME280;44851;45.648;9.004;2024-03-22T06:18:34;99539.44;;;11.70;71.91
59063;BME280;44851;45.648;9.004;2024-03-22T06:20:59;99542.16;;;11.59;72.16
59063;BME280;44851;45.648;9.004;2024-03-22T06:23:25;99541.13;;;11.81;72.29
59063;BME280;44851;45.648;9.004;2024-03-22T06:25:54;99540.31;;;11.90;71.57
59063;BME280;44851;45.648;9.004;2024-03-22T06:28:19;99537.63;;;12.01;72.19
59063;BME280;44851;45.648;9.004;2024-03-22T06:30:44;99539.28;;;12.12;71.61
59063;BME280;44851;45.648;9.004;2024-03-22T06:33:10;99534.22;;;12.20;71.45
59063;BME280;44851;45.648;9.004;2024-03-22T06:35:35;99537.78;;;12.19;70.16
59063;BME280;44851;45.648;9.004;2024-03-22T06:38:00;99536.16;;;12.37;70.62
59063;BME280;44851;45.648;9.004;2024-03-22T06:40:28;99535.03;;;12.50;71.20
59063;BME280;44851;45.648;9.004;2024-03-22T06:42:53;99531.03;;;12.65;70.75
59063;BME280;44851;45.648;9.004;2024-03-22T06:45:18;99537.34;;;12.72;70.26
59063;BME280;44851;45.648;9.004;2024-03-22T06:47:44;99531.84;;;12.75;70.08
59063;BME280;44851;45.648;9.004;2024-03-22T06:50:10;99533.34;;;12.87;69.88
59063;BME280;44851;45.648;9.004;2024-03-22T06:52:36;99536.75;;;12.98;69.95
59063;BME280;44851;45.648;9.004;2024-03-22T06:55:01;99532.16;;;13.09;69.63
59063;BME280;44851;45.648;9.004;2024-03-22T06:57:28;99538.38;;;13.18;69.55
59063;BME280;44851;45.648;9.004;2024-03-22T06:59:53;99537.94;;;13.32;68.94
59063;BME280;44851;45.648;9.004;2024-03-22T07:02:18;99534.97;;;13.45;68.56
59063;BME280;44851;45.648;9.004;2024-03-22T07:04:44;99541.81;;;13.56;68.66
59063;BME280;44851;45.648;9.004;2024-03-22T07:07:09;99541.41;;;13.78;68.13
59063;BME280;44851;45.648;9.004;2024-03-22T07:09:35;99537.25;;;13.85;67.50
59063;BME280;44851;45.648;9.004;2024-03-22T07:12:01;99539.06;;;14.03;66.80
59063;BME280;44851;45.648;9.004;2024-03-22T07:14:26;99539.66;;;14.24;66.59
59063;BME280;44851;45.648;9.004;2024-03-22T07:16:52;99532.81;;;14.31;66.00
59063;BME280;44851;45.648;9.004;2024-03-22T07:19:20;99533.03;;;14.56;65.69
59063;BME280;44851;45.648;9.004;2024-03-22T07:21:47;99526.06;;;14.90;64.55
59063;BME280;44851;45.648;9.004;2024-03-22T07:24:12;99531.88;;;15.02;64.15
59063;BME280;44851;45.648;9.004;2024-03-22T07:26:37;99523.84;;;15.03;63.06
59063;BME280;44851;45.648;9.004;2024-03-22T07:29:03;99527.44;;;15.28;63.27
59063;BME280;44851;45.648;9.004;2024-03-22T07:31:28;99527.84;;;15.42;61.73
59063;BME280;44851;45.648;9.004;2024-03-22T07:33:53;99531.53;;;15.57;62.70
59063;BME280;44851;45.648;9.004;2024-03-22T07:36:19;99535.69;;;15.76;61.00
59063;BME280;44851;45.648;9.004;2024-03-22T07:38:45;99531.16;;;16.02;60.84
59063;BME280;44851;45.648;9.004;2024-03-22T07:41:10;99537.44;;;16.09;59.58
59063;BME280;44851;45.648;9.004;2024-03-22T07:43:35;99536.50;;;16.35;58.78
59063;BME280;44851;45.648;9.004;2024-03-22T07:46:01;99529.91;;;16.55;58.25
59063;BME280;44851;45.648;9.004;2024-03-22T07:48:26;99530.25;;;16.28;58.06
59063;BME280;44851;45.648;9.004;2024-03-22T07:50:58;99533.22;;;16.41;57.61
59063;BME280;44851;45.648;9.004;2024-03-22T07:53:23;99533.53;;;16.54;57.12
59063;BME280;44851;45.648;9.004;2024-03-22T07:55:49;99526.81;;;16.52;57.09
59063;BME280;44851;45.648;9.004;2024-03-22T07:58:14;99534.53;;;16.70;55.67
59063;BME280;44851;45.648;9.004;2024-03-22T08:00:40;99541.78;;;16.68;55.28
59063;BME280;44851;45.648;9.004;2024-03-22T08:03:05;99541.75;;;17.00;54.58
59063;BME280;44851;45.648;9.004;2024-03-22T08:05:31;99538.38;;;17.31;54.87
59063;BME280;44851;45.648;9.004;2024-03-22T08:07:56;99546.66;;;17.03;54.81
59063;BME280;44851;45.648;9.004;2024-03-22T08:10:21;99543.44;;;16.69;54.14
59063;BME280;44851;45.648;9.004;2024-03-22T08:12:48;99543.88;;;17.21;53.56
59063;BME280;44851;45.648;9.004;2024-03-22T08:15:14;99542.66;;;17.40;53.46
59063;BME280;44851;45.648;9.004;2024-03-22T08:17:39;99541.56;;;17.65;52.58
59063;BME280;44851;45.648;9.004;2024-03-22T08:20:05;99543.72;;;17.93;51.89
59063;BME280;44851;45.648;9.004;2024-03-22T08:22:31;99542.72;;;18.02;52.98
59063;BME280;44851;45.648;9.004;2024-03-22T08:24:57;99538.75;;;18.29;51.81
59063;BME280;44851;45.648;9.004;2024-03-22T08:27:22;99539.44;;;18.46;50.94
59063;BME280;44851;45.648;9.004;2024-03-22T08:29:48;99537.66;;;18.61;50.58
59063;BME280;44851;45.648;9.004;2024-03-22T08:32:13;99536.38;;;18.57;50.39
59063;BME280;44851;45.648;9.004;2024-03-22T08:34:38;99532.53;;;18.45;50.87
59063;BME280;44851;45.648;9.004;2024-03-22T08:37:04;99535.41;;;18.73;50.79
59063;BME280;44851;45.648;9.004;2024-03-22T08:39:30;99533.41;;;18.60;51.43
59063;BME280;44851;45.648;9.004;2024-03-22T08:41:55;99530.16;;;18.27;51.42
59063;BME280;44851;45.648;9.004;2024-03-22T08:44:21;99530.59;;;18.39;50.82
59063;BME280;44851;45.648;9.004;2024-03-22T08:46:47;99525.19;;;18.93;49.78
59063;BME280;44851;45.648;9.004;2024-03-22T08:49:12;99532.84;;;18.88;49.74
59063;BME280;44851;45.648;9.004;2024-03-22T08:51:38;99527.94;;;19.14;49.15
59063;BME280;44851;45.648;9.004;2024-03-22T08:54:04;99525.50;;;19.13;48.58
59063;BME280;44851;45.648;9.004;2024-03-22T08:56:30;99525.13;;;19.16;49.37
59063;BME280;44851;45.648;9.004;2024-03-22T08:58:55;99526.09;;;19.59;48.76
59063;BME280;44851;45.648;9.004;2024-03-22T09:01:21;99528.50;;;19.10;49.21
59063;BME280;44851;45.648;9.004;2024-03-22T09:03:47;99526.38;;;19.50;48.37
59063;BME280;44851;45.648;9.004;2024-03-22T09:06:16;99524.72;;;19.78;47.74
59063;BME280;44851;45.648;9.004;2024-03-22T09:08:41;99531.47;;;19.81;47.91
59063;BME280;44851;45.648;9.004;2024-03-22T09:11:06;99530.28;;;19.54;48.33
59063;BME280;44851;45.648;9.004;2024-03-22T09:13:32;99526.09;;;19.59;48.54
59063;BME280;44851;45.648;9.004;2024-03-22T09:15:59;99535.38;;;19.85;46.48
59063;BME280;44851;45.648;9.004;2024-03-22T09:18:25;99526.81;;;19.83;46.31
59063;BME280;44851;45.648;9.004;2024-03-22T09:20:54;99526.72;;;20.34;46.76
59063;BME280;44851;45.648;9.004;2024-03-22T09:23:21;99523.66;;;20.30;46.53
59063;BME280;44851;45.648;9.004;2024-03-22T09:25:46;99517.00;;;19.77;48.05
59063;BME280;44851;45.648;9.004;2024-03-22T09:28:12;99512.47;;;20.35;46.80
59063;BME280;44851;45.648;9.004;2024-03-22T09:30:39;99503.53;;;20.57;45.85
59063;BME280;44851;45.648;9.004;2024-03-22T09:33:07;99497.56;;;20.76;45.38
59063;BME280;44851;45.648;9.004;2024-03-22T09:35:33;99499.13;;;20.71;44.95
59063;BME280;44851;45.648;9.004;2024-03-22T09:37:59;99501.38;;;21.02;45.06
59063;BME280;44851;45.648;9.004;2024-03-22T09:40:24;99503.91;;;21.10;44.12
59063;BME280;44851;45.648;9.004;2024-03-22T09:42:51;99505.50;;;21.05;44.34
59063;BME280;44851;45.648;9.004;2024-03-22T09:45:18;99502.84;;;20.76;44.74
59063;BME280;44851;45.648;9.004;2024-03-22T09:47:45;99499.75;;;21.01;44.25
59063;BME280;44851;45.648;9.004;2024-03-22T09:50:13;99501.00;;;21.05;45.13
59063;BME280;44851;45.648;9.004;2024-03-22T09:52:41;99503.66;;;21.05;44.04
59063;BME280;44851;45.648;9.004;2024-03-22T09:55:07;99499.41;;;21.11;43.92
59063;BME280;44851;45.648;9.004;2024-03-22T09:57:35;99498.31;;;21.26;42.60
59063;BME280;44851;45.648;9.004;2024-03-22T10:00:02;99491.06;;;21.55;42.55
59063;BME280;44851;45.648;9.004;2024-03-22T10:02:28;99493.22;;;21.32;42.83
59063;BME280;44851;45.648;9.004;2024-03-22T10:04:56;99487.13;;;21.38;41.46
59063;BME280;44851;45.648;9.004;2024-03-22T10:07:22;99484.69;;;21.08;41.60
59063;BME280;44851;45.648;9.004;2024-03-22T10:09:47;99485.53;;;21.43;42.10
59063;BME280;44851;45.648;9.004;2024-03-22T10:12:13;99495.88;;;20.69;41.77
59063;BME280;44851;45.648;9.004;2024-03-22T10:14:38;99485.66;;;21.28;40.81
59063;BME280;44851;45.648;9.004;2024-03-22T10:17:05;99488.06;;;21.23;41.41
59063;BME280;44851;45.648;9.004;2024-03-22T10:19:30;99484.13;;;20.78;42.06
59063;BME280;44851;45.648;9.004;2024-03-22T10:22:03;99490.53;;;21.25;41.27
59063;BME280;44851;45.648;9.004;2024-03-22T10:24:29;99485.03;;;21.74;40.89
59063;BME280;44851;45.648;9.004;2024-03-22T10:26:55;99475.81;;;21.70;40.22
59063;BME280;44851;45.648;9.004;2024-03-22T10:29:21;99474.00;;;21.84;40.62
59063;BME280;44851;45.648;9.004;2024-03-22T10:31:47;99474.50;;;22.14;40.38
59063;BME280;44851;45.648;9.004;2024-03-22T10:34:14;99474.50;;;22.14;39.64
59063;BME280;44851;45.648;9.004;2024-03-22T10:36:39;99471.25;;;22.45;38.44
59063;BME280;44851;45.648;9.004;2024-03-22T10:39:05;99467.56;;;22.26;38.26
59063;BME280;44851;45.648;9.004;2024-03-22T10:41:31;99465.94;;;22.12;38.02
59063;BME280;44851;45.648;9.004;2024-03-22T10:43:56;99454.47;;;22.51;37.79
59063;BME280;44851;45.648;9.004;2024-03-22T10:46:30;99454.09;;;22.61;37.93
59063;BME280;44851;45.648;9.004;2024-03-22T10:48:56;99452.03;;;22.23;36.29
59063;BME280;44851;45.648;9.004;2024-03-22T10:51:23;99452.47;;;22.33;35.91
59063;BME280;44851;45.648;9.004;2024-03-22T10:53:51;99438.53;;;21.85;36.70
59063;BME280;44851;45.648;9.004;2024-03-22T10:56:20;99443.38;;;21.68;37.45
59063;BME280;44851;45.648;9.004;2024-03-22T10:58:46;99442.25;;;22.17;37.32
59063;BME280;44851;45.648;9.004;2024-03-22T11:01:23;99434.88;;;22.39;36.27
59063;BME280;44851;45.648;9.004;2024-03-22T11:03:48;99440.19;;;22.46;36.37
59063;BME280;44851;45.648;9.004;2024-03-22T11:06:18;99436.91;;;22.64;35.26
59063;BME280;44851;45.648;9.004;2024-03-22T11:08:43;99436.34;;;23.20;34.97
59063;BME280;44851;45.648;9.004;2024-03-22T11:11:12;99434.34;;;23.08;33.28
59063;BME280;44851;45.648;9.004;2024-03-22T11:13:40;99429.06;;;23.02;31.88
59063;BME280;44851;45.648;9.004;2024-03-22T11:16:06;99420.94;;;22.83;32.19
59063;BME280;44851;45.648;9.004;2024-03-22T11:18:33;99429.84;;;23.09;32.86
59063;BME280;44851;45.648;9.004;2024-03-22T11:20:59;99422.03;;;23.27;32.06
59063;BME280;44851;45.648;9.004;2024-03-22T11:23:25;99418.91;;;23.37;31.50
59063;BME280;44851;45.648;9.004;2024-03-22T11:25:50;99417.47;;;23.41;31.48
59063;BME280;44851;45.648;9.004;2024-03-22T11:28:16;99414.16;;;23.46;30.34
59063;BME280;44851;45.648;9.004;2024-03-22T11:30:41;99400.53;;;23.67;30.83
59063;BME280;44851;45.648;9.004;2024-03-22T11:33:07;99400.34;;;23.62;31.64
59063;BME280;44851;45.648;9.004;2024-03-22T11:35:33;99382.03;;;23.79;32.44
59063;BME280;44851;45.648;9.004;2024-03-22T11:37:58;99393.31;;;24.06;32.32
59063;BME280;44851;45.648;9.004;2024-03-22T11:40:26;99381.50;;;23.95;31.61
59063;BME280;44851;45.648;9.004;2024-03-22T11:42:52;99384.72;;;24.04;31.95
59063;BME280;44851;45.648;9.004;2024-03-22T11:45:19;99374.13;;;23.97;31.42
59063;BME280;44851;45.648;9.004;2024-03-22T11:47:48;99370.03;;;23.31;31.62
59063;BME280;44851;45.648;9.004;2024-03-22T11:50:15;99371.16;;;23.49;33.27
59063;BME280;44851;45.648;9.004;2024-03-22T11:52:44;99369.00;;;23.64;32.69
59063;BME280;44851;45.648;9.004;2024-03-22T11:55:12;99363.13;;;23.87;32.01
59063;BME280;44851;45.648;9.004;2024-03-22T11:57:38;99355.50;;;23.91;32.37
59063;BME280;44851;45.648;9.004;2024-03-22T12:00:04;99347.94;;;24.37;32.79
59063;BME280;44851;45.648;9.004;2024-03-22T12:02:35;99346.50;;;23.92;32.11
59063;BME280;44851;45.648;9.004;2024-03-22T12:05:01;99356.81;;;23.56;32.82
59063;BME280;44851;45.648;9.004;2024-03-22T12:07:26;99338.25;;;24.00;31.76
59063;BME280;44851;45.648;9.004;2024-03-22T12:09:51;99342.16;;;23.72;32.06
59063;BME280;44851;45.648;9.004;2024-03-22T12:12:17;99336.78;;;23.47;32.27
59063;BME280;44851;45.648;9.004;2024-03-22T12:14:46;99339.44;;;23.79;31.18
59063;BME280;44851;45.648;9.004;2024-03-22T12:17:11;99344.03;;;23.65;30.51
59063;BME280;44851;45.648;9.004;2024-03-22T12:19:37;99328.16;;;24.08;30.78
59063;BME280;44851;45.648;9.004;2024-03-22T12:22:02;99327.66;;;24.36;30.58
59063;BME280;44851;45.648;9.004;2024-03-22T12:24:27;99330.91;;;24.20;31.27
59063;BME280;44851;45.648;9.004;2024-03-22T12:26:53;99322.66;;;23.78;30.78
59063;BME280;44851;45.648;9.004;2024-03-22T12:29:19;99328.06;;;23.65;31.01
59063;BME280;44851;45.648;9.004;2024-03-22T12:31:45;99312.38;;;23.82;31.35
59063;BME280;44851;45.648;9.004;2024-03-22T12:34:11;99312.84;;;24.22;30.87
59063;BME280;44851;45.648;9.004;2024-03-22T12:36:37;99317.41;;;23.65;32.10
59063;BME280;44851;45.648;9.004;2024-03-22T12:39:02;99302.72;;;23.87;31.99
59063;BME280;44851;45.648;9.004;2024-03-22T12:41:28;99303.13;;;23.59;32.90
59063;BME280;44851;45.648;9.004;2024-03-22T12:43:57;99299.59;;;23.91;32.64
59063;BME280;44851;45.648;9.004;2024-03-22T12:46:22;99296.53;;;23.94;31.79
59063;BME280;44851;45.648;9.004;2024-03-22T12:48:47;99282.16;;;24.20;31.52
59063;BME280;44851;45.648;9.004;2024-03-22T12:51:13;99288.38;;;23.88;30.87
59063;BME280;44851;45.648;9.004;2024-03-22T12:53:38;99281.47;;;24.43;30.21